createdAt,value
2019-03-26T00:01:40.905Z,5.53
2019-03-26T00:04:09.637Z,4.93
2019-03-26T00:06:38.178Z,4.43
2019-03-26T00:09:08.726Z,5.07
2019-03-26T00:11:37.503Z,7.87
2019-03-26T00:14:06.149Z,4.47
2019-03-26T00:16:34.949Z,4.37
2019-03-26T00:19:03.520Z,3.53
2019-03-26T00:21:32.227Z,3.33
2019-03-26T00:24:00.805Z,3.77
2019-03-26T00:26:29.403Z,3.97
2019-03-26T00:28:57.957Z,3.80
2019-03-26T00:31:26.467Z,4.23
2019-03-26T00:33:55.006Z,5.33
2019-03-26T00:36:23.687Z,3.80
2019-03-26T00:38:52.198Z,4.37
2019-03-26T00:41:20.829Z,5.10
2019-03-26T00:43:49.351Z,3.30
2019-03-26T00:46:17.892Z,3.70
2019-03-26T00:48:46.407Z,3.60
2019-03-26T00:51:15.100Z,4.20
2019-03-26T00:53:43.698Z,3.10
2019-03-26T00:56:12.453Z,3.20
2019-03-26T00:58:41.061Z,3.03
2019-03-26T01:01:09.650Z,4.70
2019-03-26T01:03:38.209Z,3.10
2019-03-26T01:06:06.838Z,3.73
2019-03-26T01:08:35.466Z,3.33
2019-03-26T01:11:04.121Z,3.37
2019-03-26T01:13:32.594Z,4.23
2019-03-26T01:16:01.251Z,3.47
2019-03-26T01:18:29.806Z,3.00
2019-03-26T01:20:58.428Z,4.30
2019-03-26T01:23:27.123Z,3.00
2019-03-26T01:25:55.666Z,3.43
2019-03-26T01:28:24.192Z,3.40
2019-03-26T01:30:52.812Z,2.90
2019-03-26T01:33:21.319Z,3.73
2019-03-26T01:35:50.542Z,2.43
2019-03-26T01:38:19.156Z,2.93
2019-03-26T01:40:47.693Z,3.27
2019-03-26T01:43:16.292Z,2.67
2019-03-26T01:45:44.906Z,4.07
2019-03-26T01:48:13.556Z,2.97
2019-03-26T01:50:42.168Z,3.33
2019-03-26T01:53:10.749Z,2.87
2019-03-26T01:55:39.300Z,2.60
2019-03-26T01:58:07.902Z,3.40
2019-03-26T02:00:36.482Z,3.13
2019-03-26T02:03:05.185Z,2.73
2019-03-26T02:05:33.784Z,3.00
2019-03-26T02:08:02.355Z,2.53
2019-03-26T02:10:30.916Z,6.10
2019-03-26T02:12:59.474Z,4.77
2019-03-26T02:15:37.964Z,4.60
2019-03-26T02:18:08.452Z,3.73
2019-03-26T02:20:37.477Z,4.20
2019-03-26T02:23:24.706Z,3.20
2019-03-26T02:25:59.795Z,3.00
2019-03-26T02:28:35.261Z,3.20
2019-03-26T02:31:14.608Z,3.70
2019-03-26T02:36:59.884Z,3.57
2019-03-26T02:39:29.818Z,3.33
2019-03-26T02:45:15.438Z,2.83
2019-03-26T02:47:56.837Z,3.20
2019-03-26T02:50:20.368Z,3.03
2019-03-26T02:53:16.612Z,3.47
2019-03-26T02:55:49.959Z,2.87
2019-03-26T02:59:16.154Z,3.23
2019-03-26T03:17:45.904Z,2.40
2019-03-26T03:20:35.505Z,4.00
2019-03-26T03:23:07.292Z,2.53
2019-03-26T03:25:53.151Z,2.40
2019-03-26T03:28:19.742Z,2.63
2019-03-26T03:36:34.543Z,2.77
2019-03-26T03:44:44.192Z,2.83
2019-03-26T03:50:04.345Z,3.67
2019-03-26T03:52:36.128Z,2.60
2019-03-26T03:55:06.129Z,3.30
2019-03-26T03:57:37.815Z,3.00
2019-03-26T04:00:24.948Z,2.33
2019-03-26T04:02:53.584Z,3.23
2019-03-26T04:05:22.182Z,3.30
2019-03-26T04:07:50.691Z,3.23
2019-03-26T04:10:19.269Z,2.57
2019-03-26T04:12:48.016Z,4.63
2019-03-26T04:15:16.805Z,3.53
2019-03-26T04:17:45.411Z,2.73
2019-03-26T04:20:13.984Z,3.40
2019-03-26T04:22:42.609Z,3.00
2019-03-26T04:25:11.381Z,2.93
2019-03-26T04:27:40.024Z,2.67
2019-03-26T04:30:10.519Z,3.47
2019-03-26T04:32:39.148Z,3.40
2019-03-26T04:35:08.204Z,3.63
2019-03-26T04:37:36.775Z,3.20
2019-03-26T04:40:05.577Z,2.97
2019-03-26T04:42:34.354Z,2.97
2019-03-26T04:45:02.916Z,3.17
2019-03-26T04:47:31.626Z,3.03
2019-03-26T04:50:00.362Z,3.97
2019-03-26T04:52:28.970Z,2.90
2019-03-26T04:54:57.554Z,3.00
2019-03-26T04:57:26.178Z,2.80
2019-03-26T04:59:54.661Z,2.90
2019-03-26T05:02:23.164Z,3.37
2019-03-26T05:04:51.785Z,4.20
2019-03-26T05:07:20.464Z,3.30
2019-03-26T05:09:49.014Z,3.40
2019-03-26T05:12:17.654Z,3.90
2019-03-26T05:14:46.220Z,2.80
2019-03-26T05:17:14.936Z,2.87
2019-03-26T05:19:43.482Z,3.27
2019-03-26T05:22:23.577Z,3.90
2019-03-26T05:24:42.341Z,3.90
2019-03-26T05:27:10.884Z,4.60
2019-03-26T05:29:40.924Z,3.97
2019-03-26T05:32:09.509Z,4.63
2019-03-26T05:34:38.184Z,3.80
2019-03-26T05:37:06.946Z,4.63
2019-03-26T05:39:35.560Z,4.23
2019-03-26T05:42:04.196Z,4.13
2019-03-26T05:44:34.355Z,4.83
2019-03-26T05:47:03.006Z,4.40
2019-03-26T05:49:31.524Z,5.70
2019-03-26T05:52:00.275Z,5.40
2019-03-26T05:54:28.876Z,5.80
2019-03-26T05:56:57.403Z,3.33
2019-03-26T05:59:49.230Z,4.17
2019-03-26T06:05:21.343Z,4.80
2019-03-26T06:15:00.813Z,4.93
2019-03-26T06:17:44.532Z,6.03
2019-03-26T06:23:42.758Z,4.70
2019-03-26T06:32:29.779Z,4.40
2019-03-26T06:35:06.143Z,5.00
2019-03-26T06:37:34.719Z,5.10
2019-03-26T06:40:04.148Z,4.67
2019-03-26T06:42:32.859Z,4.97
2019-03-26T06:45:01.413Z,4.37
2019-03-26T06:47:29.990Z,4.63
2019-03-26T06:49:58.853Z,4.50
2019-03-26T06:52:27.424Z,5.40
2019-03-26T06:54:56.173Z,5.70
2019-03-26T06:57:35.131Z,5.57
2019-03-26T06:59:55.236Z,5.10
2019-03-26T07:02:23.748Z,4.70
2019-03-26T07:04:52.340Z,5.30
2019-03-26T07:07:30.808Z,5.00
2019-03-26T07:09:51.157Z,4.60
2019-03-26T07:12:20.076Z,4.73
2019-03-26T07:14:48.641Z,4.23
2019-03-26T07:17:17.429Z,4.67
2019-03-26T07:19:46.087Z,5.27
2019-03-26T07:22:14.801Z,5.30
2019-03-26T07:24:43.605Z,3.80
2019-03-26T07:27:12.313Z,5.30
2019-03-26T07:29:41.052Z,6.00
2019-03-26T07:32:09.746Z,5.00
2019-03-26T07:34:38.462Z,5.80
2019-03-26T07:37:07.236Z,5.43
2019-03-26T07:39:38.924Z,4.57
2019-03-26T07:42:06.170Z,5.23
2019-03-26T07:44:34.824Z,4.80
2019-03-26T07:47:03.468Z,4.53
2019-03-26T07:49:32.095Z,3.83
2019-03-26T07:52:00.783Z,4.40
2019-03-26T07:54:32.455Z,4.70
2019-03-26T07:57:00.072Z,4.67
2019-03-26T07:59:28.830Z,4.27
2019-03-26T08:01:57.549Z,3.90
2019-03-26T08:04:26.305Z,3.67
2019-03-26T08:06:55.097Z,4.43
2019-03-26T08:09:23.774Z,4.57
2019-03-26T08:11:52.561Z,4.70
2019-03-26T08:14:29.517Z,4.70
2019-03-26T08:17:25.817Z,4.37
2019-03-26T08:19:54.776Z,4.03
2019-03-26T08:22:23.555Z,4.80
2019-03-26T08:24:52.334Z,4.37
2019-03-26T08:27:21.157Z,4.73
2019-03-26T08:29:49.834Z,3.37
2019-03-26T08:32:18.704Z,3.30
2019-03-26T08:34:47.515Z,3.70
2019-03-26T08:37:16.216Z,3.87
2019-03-26T08:39:44.838Z,3.93
2019-03-26T08:42:13.396Z,4.60
2019-03-26T08:44:42.066Z,4.30
2019-03-26T08:47:10.821Z,3.97
2019-03-26T08:49:39.520Z,3.80
2019-03-26T08:52:20.310Z,3.80
2019-03-26T08:54:48.862Z,4.47
2019-03-26T08:57:17.526Z,4.00
2019-03-26T08:59:46.063Z,3.60
2019-03-26T09:02:14.703Z,4.13
2019-03-26T09:04:43.291Z,4.40
2019-03-26T09:07:11.953Z,4.47
2019-03-26T09:09:40.531Z,3.97
2019-03-26T09:12:09.198Z,4.00
2019-03-26T09:14:37.865Z,4.37
2019-03-26T09:17:06.587Z,4.50
2019-03-26T09:19:35.232Z,3.80
2019-03-26T09:22:03.966Z,3.63
2019-03-26T09:24:32.673Z,3.80
2019-03-26T09:27:01.374Z,4.07
2019-03-26T09:29:30.063Z,4.40
2019-03-26T09:31:58.714Z,3.83
2019-03-26T09:34:27.472Z,3.93
2019-03-26T09:36:56.238Z,3.80
2019-03-26T09:39:24.861Z,3.63
2019-03-26T09:41:53.498Z,3.70
2019-03-26T09:44:22.254Z,4.50
2019-03-26T09:46:50.852Z,4.07
2019-03-26T09:49:19.523Z,4.10
2019-03-26T09:51:48.200Z,4.37
2019-03-26T09:54:16.872Z,4.67
2019-03-26T09:56:45.638Z,3.80
2019-03-26T09:59:14.338Z,3.60
2019-03-26T10:01:43.035Z,3.83
2019-03-26T10:04:11.621Z,4.40
2019-03-26T10:06:40.308Z,4.53
2019-03-26T10:09:09.111Z,4.78
2019-03-26T10:11:37.714Z,4.30
2019-03-26T10:14:06.389Z,4.03
2019-03-26T10:16:35.156Z,3.63
2019-03-26T10:19:03.805Z,4.07
2019-03-26T10:21:32.520Z,4.30
2019-03-26T10:24:01.176Z,3.97
2019-03-26T10:26:29.906Z,4.00
2019-03-26T10:28:58.518Z,4.00
2019-03-26T10:31:27.156Z,4.37
2019-03-26T10:33:55.894Z,4.50
2019-03-26T10:36:44.008Z,4.87
2019-03-26T10:39:12.762Z,4.37
2019-03-26T10:41:41.546Z,5.17
2019-03-26T10:44:10.166Z,4.50
2019-03-26T10:46:40.415Z,4.63
2019-03-26T10:49:09.140Z,5.27
2019-03-26T10:51:37.886Z,4.43
2019-03-26T10:54:06.556Z,4.10
2019-03-26T10:56:35.200Z,4.37
2019-03-26T10:59:04.269Z,4.47
2019-03-26T11:01:33.237Z,4.33
2019-03-26T11:04:01.842Z,4.50
2019-03-26T11:06:30.482Z,4.47
2019-03-26T11:08:59.034Z,4.40
2019-03-26T11:11:27.680Z,4.23
2019-03-26T11:13:58.686Z,4.10
2019-03-26T11:16:26.483Z,4.87
2019-03-26T11:18:55.168Z,5.07
2019-03-26T11:21:23.765Z,5.07
2019-03-26T11:23:52.346Z,4.87
2019-03-26T11:26:21.033Z,5.00
2019-03-26T11:28:49.694Z,4.47
2019-03-26T11:31:18.254Z,4.80
2019-03-26T11:33:47.007Z,4.73
2019-03-26T11:36:15.616Z,5.17
2019-03-26T11:38:44.288Z,4.20
2019-03-26T11:41:13.044Z,4.53
2019-03-26T11:43:41.701Z,4.27
2019-03-26T11:46:10.431Z,4.30
2019-03-26T11:48:39.144Z,5.00
2019-03-26T11:51:08.122Z,3.73
2019-03-26T11:53:36.914Z,4.30
2019-03-26T11:56:05.668Z,3.87
2019-03-26T11:58:53.664Z,4.17
2019-03-26T12:01:22.244Z,5.10
2019-03-26T12:03:50.914Z,4.57
2019-03-26T12:06:19.670Z,4.10
2019-03-26T12:08:48.306Z,4.07
2019-03-26T12:11:16.958Z,4.13
2019-03-26T12:13:45.620Z,3.70
2019-03-26T12:16:14.394Z,4.37
2019-03-26T12:18:43.014Z,4.40
2019-03-26T12:21:11.748Z,4.20
2019-03-26T12:23:40.479Z,4.03
2019-03-26T12:26:09.258Z,4.03
2019-03-26T12:28:38.030Z,3.77
2019-03-26T12:31:06.710Z,3.93
2019-03-26T12:33:35.344Z,4.70
2019-03-26T12:36:04.002Z,5.40
2019-03-26T12:38:32.661Z,4.60
2019-03-26T12:41:01.345Z,5.27
2019-03-26T12:43:29.998Z,4.67
2019-03-26T12:46:01.672Z,5.00
2019-03-26T12:48:28.865Z,5.20
2019-03-26T12:50:57.431Z,6.03
2019-03-26T12:53:26.068Z,6.07
2019-03-26T12:55:54.843Z,6.40
2019-03-26T12:58:31.822Z,8.00
2019-03-26T13:00:53.861Z,7.37
2019-03-26T13:03:22.638Z,7.70
2019-03-26T13:05:51.275Z,8.10
2019-03-26T13:08:19.843Z,7.03
2019-03-26T13:10:53.783Z,7.00
2019-03-26T13:13:18.706Z,7.23
2019-03-26T13:15:47.479Z,6.58
2019-03-26T13:18:15.992Z,8.20
2019-03-26T13:20:44.809Z,7.40
2019-03-26T13:23:13.438Z,7.60
2019-03-26T13:25:42.067Z,7.63
2019-03-26T13:28:10.654Z,7.17
2019-03-26T13:30:39.326Z,7.63
2019-03-26T13:33:08.056Z,9.33
2019-03-26T13:35:36.658Z,8.97
2019-03-26T13:38:05.338Z,8.70
2019-03-26T13:40:34.038Z,9.40
2019-03-26T13:43:02.909Z,9.07
2019-03-26T13:45:32.952Z,9.80
2019-03-26T13:48:01.905Z,10.10
2019-03-26T13:50:30.493Z,8.90
2019-03-26T13:53:01.638Z,9.03
2019-03-26T13:55:30.244Z,8.50
2019-03-26T13:57:58.755Z,8.83
2019-03-26T14:00:35.679Z,8.80
2019-03-26T14:03:05.066Z,8.53
2019-03-26T14:05:33.783Z,7.30
2019-03-26T14:08:02.441Z,8.60
2019-03-26T14:10:40.848Z,8.07
2019-03-26T14:13:01.499Z,6.67
2019-03-26T14:15:30.145Z,7.27
2019-03-26T14:17:58.840Z,6.90
2019-03-26T14:20:27.571Z,6.87
2019-03-26T14:22:56.295Z,6.00
2019-03-26T14:25:25.327Z,6.50
2019-03-26T14:27:54.236Z,6.63
2019-03-26T14:30:37.339Z,6.57
2019-03-26T14:33:06.843Z,6.57
2019-03-26T14:35:35.420Z,7.23
2019-03-26T14:38:04.152Z,7.67
2019-03-26T14:40:32.796Z,7.20
2019-03-26T14:43:01.426Z,7.47
2019-03-26T14:45:30.189Z,7.30
2019-03-26T14:47:58.813Z,7.50
2019-03-26T14:50:27.516Z,7.90
2019-03-26T14:52:56.132Z,7.93
2019-03-26T14:55:24.763Z,7.00
2019-03-26T14:57:53.477Z,7.67
2019-03-26T15:00:22.124Z,7.57
2019-03-26T15:02:50.736Z,7.37
2019-03-26T15:05:19.429Z,8.57
2019-03-26T15:07:48.231Z,9.07
2019-03-26T15:10:16.919Z,10.13
2019-03-26T15:12:45.663Z,9.20
2019-03-26T15:15:14.402Z,8.43
2019-03-26T15:17:43.080Z,8.30
2019-03-26T15:20:11.903Z,9.03
2019-03-26T15:22:40.649Z,8.80
2019-03-26T15:25:09.319Z,8.87
2019-03-26T15:27:37.896Z,8.03
2019-03-26T15:30:08.411Z,8.83
2019-03-26T15:32:37.257Z,8.97
2019-03-26T15:35:07.438Z,8.87
2019-03-26T15:37:36.147Z,8.93
2019-03-26T15:40:07.632Z,8.67
2019-03-26T15:42:36.260Z,8.23
2019-03-26T15:45:09.148Z,7.87
2019-03-26T15:47:37.947Z,7.67
2019-03-26T15:50:07.128Z,7.93
2019-03-26T15:52:35.799Z,8.47
2019-03-26T15:55:05.589Z,7.60
2019-03-26T15:57:34.229Z,7.87
2019-03-26T16:00:03.982Z,7.50
2019-03-26T16:02:32.622Z,8.00
2019-03-26T16:05:01.340Z,8.40
2019-03-26T16:07:33.022Z,9.03
2019-03-26T16:10:00.650Z,8.03
2019-03-26T16:12:40.623Z,9.83
2019-03-26T16:14:59.593Z,8.20
2019-03-26T16:17:28.312Z,9.57
2019-03-26T16:19:56.931Z,8.50
2019-03-26T16:22:25.739Z,9.87
2019-03-26T16:24:54.377Z,10.30
2019-03-26T16:27:23.065Z,9.83
2019-03-26T16:29:52.142Z,10.73
2019-03-26T16:32:20.859Z,10.90
2019-03-26T16:34:49.426Z,12.43
2019-03-26T16:37:18.255Z,10.90
2019-03-26T16:39:46.869Z,11.03
2019-03-26T16:42:15.432Z,10.80
2019-03-26T16:44:44.129Z,10.30
2019-03-26T16:47:12.681Z,9.03
2019-03-26T16:49:41.408Z,9.33
2019-03-26T16:52:10.163Z,8.60
2019-03-26T16:54:38.785Z,7.83
2019-03-26T16:57:07.443Z,7.23
2019-03-26T16:59:36.079Z,6.90
2019-03-26T17:02:04.809Z,6.67
2019-03-26T17:04:33.495Z,6.67
2019-03-26T17:07:02.172Z,6.47
2019-03-26T17:09:30.800Z,6.43
2019-03-26T17:12:03.562Z,6.53
2019-03-26T17:14:29.929Z,5.73
2019-03-26T17:16:58.537Z,5.77
2019-03-26T17:19:27.223Z,6.00
2019-03-26T17:21:56.174Z,5.87
2019-03-26T17:24:24.897Z,6.40
2019-03-26T17:26:53.477Z,6.03
2019-03-26T17:29:22.146Z,5.87
2019-03-26T17:31:50.701Z,5.60
2019-03-26T17:34:19.372Z,6.17
2019-03-26T17:36:48.030Z,5.93
2019-03-26T17:39:16.539Z,6.80
2019-03-26T17:41:45.154Z,6.47
2019-03-26T17:44:14.007Z,6.37
2019-03-26T17:46:42.760Z,7.10
2019-03-26T17:49:11.363Z,6.40
2019-03-26T17:51:41.314Z,6.53
2019-03-26T17:54:09.907Z,6.77
2019-03-26T17:56:38.503Z,6.07
2019-03-26T17:59:07.097Z,6.27
2019-03-26T18:01:35.949Z,6.53
2019-03-26T18:04:04.669Z,6.20
2019-03-26T18:06:33.403Z,7.33
2019-03-26T18:09:02.079Z,6.70
2019-03-26T18:11:30.776Z,6.63
2019-03-26T18:13:59.575Z,6.37
2019-03-26T18:16:28.086Z,6.50
2019-03-26T18:18:56.730Z,6.10
2019-03-26T18:21:25.541Z,5.90
2019-03-26T18:23:54.162Z,5.97
2019-03-26T18:26:22.912Z,6.53
2019-03-26T18:28:51.566Z,6.03
2019-03-26T18:31:20.207Z,6.30
2019-03-26T18:33:48.785Z,7.27
2019-03-26T18:36:17.535Z,6.60
2019-03-26T18:38:46.163Z,6.63
2019-03-26T18:41:20.453Z,7.85
2019-03-26T18:43:52.297Z,7.50
2019-03-26T18:46:21.004Z,8.37
2019-03-26T18:48:49.652Z,8.63
2019-03-26T18:51:18.297Z,7.17
2019-03-26T18:53:46.850Z,9.08
2019-03-26T18:56:15.493Z,8.00
2019-03-26T18:58:44.181Z,8.10
2019-03-26T19:01:12.941Z,8.97
2019-03-26T19:03:41.624Z,7.50
2019-03-26T19:06:10.494Z,8.00
2019-03-26T19:08:40.062Z,8.00
2019-03-26T19:11:09.222Z,8.37
2019-03-26T19:13:37.825Z,8.73
2019-03-26T19:16:06.497Z,8.80
2019-03-26T19:18:35.123Z,9.20
2019-03-26T19:21:03.722Z,9.43
2019-03-26T19:23:33.110Z,9.03
2019-03-26T19:26:02.128Z,10.00
2019-03-26T19:28:30.842Z,10.43
2019-03-26T19:31:03.968Z,9.97
2019-03-26T19:33:32.656Z,10.67
2019-03-26T19:36:01.452Z,10.37
2019-03-26T19:38:30.111Z,10.90
2019-03-26T19:41:02.051Z,10.27
2019-03-26T19:43:33.012Z,10.37
2019-03-26T19:46:01.959Z,12.13
2019-03-26T19:48:31.492Z,10.37
2019-03-26T19:51:00.580Z,11.50
2019-03-26T19:53:29.433Z,11.33
2019-03-26T19:55:58.315Z,10.63
2019-03-26T19:58:28.061Z,11.13
2019-03-26T20:00:56.845Z,12.57
2019-03-26T20:03:25.595Z,11.30
2019-03-26T20:05:54.436Z,11.07
2019-03-26T20:08:23.212Z,12.97
2019-03-26T20:10:51.916Z,12.30
2019-03-26T20:13:24.732Z,11.93
2019-03-26T20:15:51.189Z,12.20
2019-03-26T20:18:19.833Z,12.77
2019-03-26T20:20:48.848Z,12.50
2019-03-26T20:23:17.460Z,12.33
2019-03-26T20:25:46.043Z,12.17
2019-03-26T20:28:14.755Z,13.87
2019-03-26T20:30:43.481Z,12.10
2019-03-26T20:33:12.284Z,11.70
2019-03-26T20:35:41.250Z,13.13
2019-03-26T20:38:10.005Z,16.37
2019-03-26T20:40:38.691Z,12.77
2019-03-26T20:43:07.577Z,13.67
2019-03-26T20:45:36.335Z,11.60
2019-03-26T20:48:05.176Z,11.83
2019-03-26T20:50:34.018Z,12.47
2019-03-26T20:53:04.214Z,12.47
2019-03-26T20:55:34.167Z,11.47
2019-03-26T20:58:03.226Z,12.53
2019-03-26T21:00:39.232Z,13.33
2019-03-26T21:03:27.203Z,12.00
2019-03-26T21:05:55.906Z,12.57
2019-03-26T21:08:24.468Z,11.80
2019-03-26T21:10:53.157Z,12.97
2019-03-26T21:13:21.713Z,12.57
2019-03-26T21:15:57.147Z,12.23
2019-03-26T21:18:20.864Z,12.90
2019-03-26T21:20:49.456Z,12.40
2019-03-26T21:23:18.072Z,12.77
2019-03-26T21:25:46.764Z,13.27
2019-03-26T21:28:15.370Z,12.47
2019-03-26T21:30:44.026Z,12.83
2019-03-26T21:33:12.844Z,13.27
2019-03-26T21:35:41.478Z,12.13
2019-03-26T21:38:10.077Z,11.93
2019-03-26T21:40:38.817Z,13.53
2019-03-26T21:43:07.448Z,13.53
2019-03-26T21:45:37.978Z,13.10
2019-03-26T21:48:07.586Z,13.30
2019-03-26T21:50:36.410Z,12.37
2019-03-26T21:53:05.323Z,12.70
2019-03-26T21:55:34.039Z,13.00
2019-03-26T21:58:02.628Z,13.20
2019-03-26T22:00:31.368Z,13.37
2019-03-26T22:03:00.014Z,13.60
2019-03-26T22:05:28.742Z,13.07
2019-03-26T22:07:57.542Z,14.37
2019-03-26T22:10:26.368Z,13.93
2019-03-26T22:12:55.254Z,13.20
2019-03-26T22:15:24.133Z,14.43
2019-03-26T22:17:52.890Z,14.77
2019-03-26T22:20:21.576Z,14.57
2019-03-26T22:22:50.237Z,13.93
2019-03-26T22:25:19.014Z,15.67
2019-03-26T22:27:51.320Z,14.43
2019-03-26T22:30:20.370Z,14.90
2019-03-26T22:32:49.048Z,15.03
2019-03-26T22:35:17.757Z,14.00
2019-03-26T22:37:46.412Z,15.23
2019-03-26T22:40:15.376Z,14.53
2019-03-26T22:42:44.194Z,15.13
2019-03-26T22:45:14.062Z,15.07
2019-03-26T22:47:42.737Z,15.40
2019-03-26T22:50:11.778Z,15.77
2019-03-26T22:52:42.654Z,15.80
2019-03-26T22:55:12.336Z,15.73
2019-03-26T22:57:41.160Z,16.27
2019-03-26T23:00:18.507Z,16.63
2019-03-26T23:02:47.168Z,16.13
2019-03-26T23:05:16.444Z,15.93
2019-03-26T23:07:45.189Z,16.97
2019-03-26T23:10:15.049Z,17.53
2019-03-26T23:12:43.844Z,16.17
2019-03-26T23:15:21.477Z,18.27
2019-03-26T23:17:50.343Z,16.03
2019-03-26T23:20:19.174Z,16.30
2019-03-26T23:22:47.988Z,16.73
2019-03-26T23:25:16.789Z,18.20
2019-03-26T23:27:45.552Z,17.37
2019-03-26T23:30:14.950Z,17.13
2019-03-26T23:32:43.739Z,17.17
2019-03-26T23:35:13.481Z,17.60
2019-03-26T23:37:42.329Z,17.10
2019-03-26T23:40:11.548Z,18.47
2019-03-26T23:42:40.313Z,17.87
2019-03-26T23:45:09.537Z,18.90
2019-03-26T23:47:38.185Z,17.63
2019-03-26T23:50:09.985Z,17.10
2019-03-26T23:52:38.734Z,17.77
2019-03-26T23:55:08.843Z,18.10
2019-03-26T23:57:37.793Z,19.60
